createdAt,value
2018-07-09T00:01:40.216Z,102452.98
2018-07-09T00:04:09.070Z,102452.95
2018-07-09T00:06:37.887Z,102455.94
2018-07-09T00:09:07.312Z,102443.91
2018-07-09T00:11:35.979Z,102444.25
2018-07-09T00:14:05.003Z,102440.39
2018-07-09T00:16:33.912Z,102444.84
2018-07-09T00:19:02.748Z,102447.59
2018-07-09T00:21:31.760Z,102451.45
2018-07-09T00:24:00.652Z,102448.71
2018-07-09T00:26:29.601Z,102455.66
2018-07-09T00:28:58.480Z,102456.05
2018-07-09T00:31:27.664Z,102453.78
2018-07-09T00:33:56.589Z,102450.45
2018-07-09T00:36:25.428Z,102451.56
2018-07-09T00:38:54.454Z,102448.69
2018-07-09T00:41:24.237Z,102439.68
2018-07-09T00:43:53.070Z,102438.62
2018-07-09T00:46:21.945Z,102441.35
2018-07-09T00:48:50.891Z,102432.53
2018-07-09T00:51:19.804Z,102438.88
2018-07-09T00:53:48.538Z,102441.19
2018-07-09T00:56:17.412Z,102440.32
2018-07-09T00:58:46.248Z,102441.02
2018-07-09T01:01:15.020Z,102445.59
2018-07-09T01:03:43.919Z,102441.87
2018-07-09T01:06:12.724Z,102442.34
2018-07-09T01:08:41.704Z,102444.70
2018-07-09T01:11:27.421Z,102446.53
2018-07-09T01:13:56.335Z,102446.33
2018-07-09T01:16:24.938Z,102444.22
2018-07-09T01:18:53.783Z,102439.12
2018-07-09T01:21:22.719Z,102436.67
2018-07-09T01:23:51.598Z,102434.62
2018-07-09T01:26:20.543Z,102435.65
2018-07-09T01:28:49.537Z,102436.27
2018-07-09T01:31:18.351Z,102433.86
2018-07-09T01:33:47.148Z,102430.77
2018-07-09T01:36:15.806Z,102429.26
2018-07-09T01:38:44.658Z,102433.05
2018-07-09T01:41:13.817Z,102434.63
2018-07-09T01:43:42.660Z,102441.25
2018-07-09T01:46:11.513Z,102430.85
2018-07-09T01:48:40.118Z,102431.23
2018-07-09T01:51:09.026Z,102437.95
2018-07-09T01:53:37.826Z,102435.65
2018-07-09T01:56:06.657Z,102436.38
2018-07-09T01:58:35.446Z,102434.73
2018-07-09T02:01:04.315Z,102426.31
2018-07-09T02:03:33.180Z,102430.15
2018-07-09T02:06:02.033Z,102425.77
2018-07-09T02:08:30.638Z,102432.17
2018-07-09T02:10:59.497Z,102424.41
2018-07-09T02:13:28.259Z,102423.25
2018-07-09T02:15:57.165Z,102422.69
2018-07-09T02:18:25.951Z,102424.55
2018-07-09T02:20:54.817Z,102418.11
2018-07-09T02:23:23.647Z,102419.61
2018-07-09T02:25:52.486Z,102418.17
2018-07-09T02:28:21.211Z,102422.87
2018-07-09T02:30:50.071Z,102419.16
2018-07-09T02:33:18.965Z,102421.05
2018-07-09T02:35:47.740Z,102412.97
2018-07-09T02:38:16.576Z,102422.35
2018-07-09T02:40:45.494Z,102415.03
2018-07-09T02:43:14.373Z,102404.97
2018-07-09T02:45:49.111Z,102410.84
2018-07-09T02:48:17.766Z,102405.35
2018-07-09T02:50:46.784Z,102391.99
2018-07-09T02:53:15.615Z,102402.77
2018-07-09T02:55:44.383Z,102394.32
2018-07-09T02:58:13.227Z,102392.27
2018-07-09T03:00:42.062Z,102386.09
2018-07-09T03:03:10.968Z,102388.36
2018-07-09T03:05:39.765Z,102391.67
2018-07-09T03:08:08.610Z,102398.65
2018-07-09T03:10:37.440Z,102397.73
2018-07-09T03:13:06.376Z,102399.59
2018-07-09T03:15:35.219Z,102400.41
2018-07-09T03:18:04.166Z,102407.20
2018-07-09T03:20:33.000Z,102407.42
2018-07-09T03:23:01.757Z,102416.34
2018-07-09T03:25:30.612Z,102413.08
2018-07-09T03:27:59.279Z,102417.75
2018-07-09T03:30:28.117Z,102415.81
2018-07-09T03:32:56.928Z,102427.17
2018-07-09T03:35:25.779Z,102418.69
2018-07-09T03:37:54.625Z,102423.02
2018-07-09T03:40:23.686Z,102421.73
2018-07-09T03:42:52.475Z,102423.27
2018-07-09T03:45:27.512Z,102422.63
2018-07-09T03:47:56.351Z,102421.48
2018-07-09T03:50:25.203Z,102413.83
2018-07-09T03:52:53.973Z,102413.92
2018-07-09T03:55:22.803Z,102405.02
2018-07-09T03:57:51.700Z,102410.72
2018-07-09T04:00:20.384Z,102408.70
2018-07-09T04:02:49.252Z,102408.11
2018-07-09T04:05:18.056Z,102411.52
2018-07-09T04:07:46.732Z,102413.88
2018-07-09T04:10:15.600Z,102414.78
2018-07-09T04:12:44.384Z,102414.78
2018-07-09T04:15:13.308Z,102410.82
2018-07-09T04:17:42.148Z,102404.28
2018-07-09T04:20:10.973Z,102411.38
2018-07-09T04:22:39.797Z,102408.08
2018-07-09T04:25:08.796Z,102409.91
2018-07-09T04:27:37.675Z,102408.20
2018-07-09T04:30:06.481Z,102419.42
2018-07-09T04:32:35.189Z,102407.96
2018-07-09T04:35:04.051Z,102416.47
2018-07-09T04:37:33.066Z,102412.45
2018-07-09T04:40:01.776Z,102400.81
2018-07-09T04:42:30.629Z,102402.30
2018-07-09T04:44:59.291Z,102400.83
2018-07-09T04:47:28.387Z,102393.48
2018-07-09T04:49:57.150Z,102403.00
2018-07-09T04:52:25.859Z,102397.31
2018-07-09T04:54:54.741Z,102401.34
2018-07-09T04:57:23.532Z,102402.59
2018-07-09T04:59:52.294Z,102393.62
2018-07-09T05:02:21.129Z,102404.45
2018-07-09T05:04:50.091Z,102402.80
2018-07-09T05:07:18.956Z,102399.76
2018-07-09T05:09:47.739Z,102406.55
2018-07-09T05:12:16.593Z,102401.59
2018-07-09T05:14:45.380Z,102402.67
2018-07-09T05:17:14.232Z,102401.55
2018-07-09T05:19:43.087Z,102392.42
2018-07-09T05:22:11.693Z,102387.16
2018-07-09T05:24:40.542Z,102386.59
2018-07-09T05:27:09.509Z,102389.33
2018-07-09T05:29:38.341Z,102391.39
2018-07-09T05:32:07.160Z,102387.71
2018-07-09T05:34:35.983Z,102387.50
2018-07-09T05:37:04.845Z,102383.03
2018-07-09T05:39:40.489Z,102390.55
2018-07-09T05:42:09.505Z,102387.91
2018-07-09T05:44:39.119Z,102379.25
2018-07-09T05:47:08.768Z,102383.10
2018-07-09T05:49:37.712Z,102388.33
2018-07-09T05:52:06.709Z,102385.33
2018-07-09T05:54:35.923Z,102382.86
2018-07-09T05:57:04.744Z,102383.55
2018-07-09T05:59:33.552Z,102372.92
2018-07-09T06:02:03.270Z,102370.33
2018-07-09T06:04:32.141Z,102369.95
2018-07-09T06:07:01.024Z,102370.04
2018-07-09T06:09:29.933Z,102366.50
2018-07-09T06:11:58.788Z,102371.49
2018-07-09T06:14:27.652Z,102368.95
2018-07-09T06:16:56.413Z,102364.91
2018-07-09T06:19:25.295Z,102366.11
2018-07-09T06:21:54.264Z,102366.47
2018-07-09T06:24:23.084Z,102362.39
2018-07-09T06:26:51.799Z,102369.34
2018-07-09T06:29:20.608Z,102368.61
2018-07-09T06:31:49.338Z,102371.36
2018-07-09T06:34:18.163Z,102369.98
2018-07-09T06:36:47.044Z,102369.20
2018-07-09T06:39:15.694Z,102366.89
2018-07-09T06:41:44.519Z,102364.70
2018-07-09T06:44:13.511Z,102364.28
2018-07-09T06:46:42.180Z,102363.62
2018-07-09T06:49:10.992Z,102363.62
2018-07-09T06:51:39.661Z,102364.88
2018-07-09T06:54:08.490Z,102360.85
2018-07-09T06:56:37.395Z,102366.66
2018-07-09T06:59:06.231Z,102365.86
2018-07-09T07:01:35.040Z,102362.23
2018-07-09T07:04:03.910Z,102358.85
2018-07-09T07:06:32.809Z,102360.00
2018-07-09T07:09:01.769Z,102359.68
2018-07-09T07:11:30.691Z,102359.02
2018-07-09T07:13:59.481Z,102360.08
2018-07-09T07:16:28.269Z,102361.83
2018-07-09T07:18:57.135Z,102361.58
2018-07-09T07:21:25.966Z,102355.97
2018-07-09T07:23:54.639Z,102363.97
2018-07-09T07:26:23.525Z,102362.27
2018-07-09T07:28:52.468Z,102361.34
2018-07-09T07:31:21.344Z,102366.09
2018-07-09T07:33:50.338Z,102359.67
2018-07-09T07:36:19.138Z,102350.14
2018-07-09T07:38:48.020Z,102352.12
2018-07-09T07:41:16.847Z,102341.52
2018-07-09T07:43:45.749Z,102336.50
2018-07-09T07:46:14.604Z,102336.12
2018-07-09T07:48:43.443Z,102336.87
2018-07-09T07:51:12.283Z,102333.06
2018-07-09T07:53:41.144Z,102331.63
2018-07-09T07:56:09.808Z,102331.63
2018-07-09T07:58:38.708Z,102333.73
2018-07-09T08:01:07.626Z,102336.01
2018-07-09T08:03:36.300Z,102341.42
2018-07-09T08:06:07.127Z,102345.62
2018-07-09T08:08:36.144Z,102341.34
2018-07-09T08:11:11.069Z,102344.21
2018-07-09T08:13:34.586Z,102326.92
2018-07-09T08:16:03.434Z,102324.34
2018-07-09T08:18:32.123Z,102320.40
2018-07-09T08:21:00.786Z,102318.78
2018-07-09T08:23:29.606Z,102323.05
2018-07-09T08:25:58.511Z,102321.59
2018-07-09T08:28:27.609Z,102324.83
2018-07-09T08:30:56.492Z,102328.97
2018-07-09T08:33:25.364Z,102326.20
2018-07-09T08:35:54.262Z,102322.19
2018-07-09T08:38:23.148Z,102328.70
2018-07-09T08:40:51.829Z,102327.39
2018-07-09T08:43:20.916Z,102335.05
2018-07-09T08:45:49.775Z,102323.70
2018-07-09T08:48:18.778Z,102336.62
2018-07-09T08:50:47.624Z,102327.17
2018-07-09T08:53:16.259Z,102320.00
2018-07-09T08:55:45.145Z,102325.31
2018-07-09T08:58:13.948Z,102314.20
2018-07-09T09:00:42.839Z,102318.91
2018-07-09T09:03:11.656Z,102310.84
2018-07-09T09:05:40.533Z,102310.38
2018-07-09T09:08:09.389Z,102322.78
2018-07-09T09:10:38.181Z,102310.23
2018-07-09T09:13:07.302Z,102301.37
2018-07-09T09:15:36.099Z,102300.56
2018-07-09T09:18:05.013Z,102297.72
2018-07-09T09:20:33.804Z,102303.36
2018-07-09T09:23:02.662Z,102297.77
2018-07-09T09:25:31.569Z,102300.61
2018-07-09T09:28:00.412Z,102306.17
2018-07-09T09:30:29.268Z,102309.97
2018-07-09T09:32:58.089Z,102306.52
2018-07-09T09:35:26.895Z,102301.13
2018-07-09T09:37:55.915Z,102299.36
2018-07-09T09:40:24.773Z,102302.59
2018-07-09T09:42:53.912Z,102292.79
2018-07-09T09:45:28.636Z,102308.01
2018-07-09T09:47:57.540Z,102312.44
2018-07-09T09:50:26.340Z,102302.98
2018-07-09T09:52:55.181Z,102304.59
2018-07-09T09:55:24.075Z,102299.59
2018-07-09T09:57:52.950Z,102301.92
2018-07-09T10:00:26.378Z,102303.34
2018-07-09T10:02:55.216Z,102303.52
2018-07-09T10:05:23.817Z,102291.18
2018-07-09T10:07:52.542Z,102294.52
2018-07-09T10:10:21.420Z,102291.93
2018-07-09T10:12:50.322Z,102301.64
2018-07-09T10:15:19.438Z,102296.97
2018-07-09T10:17:48.291Z,102293.67
2018-07-09T10:20:17.220Z,102295.94
2018-07-09T10:22:46.101Z,102280.64
2018-07-09T10:25:14.963Z,102275.81
2018-07-09T10:27:43.777Z,102283.42
2018-07-09T10:30:12.611Z,102274.34
2018-07-09T10:32:41.580Z,102280.63
2018-07-09T10:35:10.626Z,102273.72
2018-07-09T10:37:39.697Z,102269.45
2018-07-09T10:40:08.676Z,102269.94
2018-07-09T10:42:37.592Z,102281.55
2018-07-09T10:45:06.306Z,102270.27
2018-07-09T10:47:35.092Z,102281.05
2018-07-09T10:50:04.156Z,102280.56
2018-07-09T10:52:32.987Z,102268.30
2018-07-09T10:55:01.848Z,102267.95
2018-07-09T10:57:30.703Z,102271.42
2018-07-09T10:59:59.568Z,102271.42
2018-07-09T11:02:28.256Z,102275.98
2018-07-09T11:04:57.083Z,102275.53
2018-07-09T11:07:25.931Z,102269.98
2018-07-09T11:09:55.080Z,102281.20
2018-07-09T11:12:23.891Z,102274.67
2018-07-09T11:14:52.755Z,102282.59
2018-07-09T11:17:21.605Z,102267.69
2018-07-09T11:19:50.387Z,102280.02
2018-07-09T11:22:19.206Z,102274.94
2018-07-09T11:24:47.995Z,102281.22
2018-07-09T11:27:16.856Z,102287.80
2018-07-09T11:29:45.667Z,102268.40
2018-07-09T11:32:14.481Z,102274.37
2018-07-09T11:34:43.268Z,102274.11
2018-07-09T11:37:12.096Z,102276.89
2018-07-09T11:39:40.901Z,102287.37
2018-07-09T11:42:09.752Z,102273.89
2018-07-09T11:44:38.609Z,102287.78
2018-07-09T11:47:07.632Z,102267.77
2018-07-09T11:49:36.455Z,102280.59
2018-07-09T11:52:05.576Z,102276.33
2018-07-09T11:54:34.198Z,102270.52
2018-07-09T11:57:02.996Z,102270.92
2018-07-09T11:59:32.107Z,102280.41
2018-07-09T12:02:01.349Z,102279.54
2018-07-09T12:04:30.299Z,102269.31
2018-07-09T12:06:59.153Z,102281.85
2018-07-09T12:09:28.417Z,102275.90
2018-07-09T12:11:57.200Z,102273.14
2018-07-09T12:14:25.830Z,102273.53
2018-07-09T12:16:54.719Z,102275.28
2018-07-09T12:19:23.526Z,102278.98
2018-07-09T12:21:52.520Z,102278.61
2018-07-09T12:24:21.347Z,102279.20
2018-07-09T12:28:26.350Z,102280.87
2018-07-09T12:30:55.343Z,102288.06
2018-07-09T12:33:24.384Z,102277.19
2018-07-09T12:35:53.103Z,102286.74
2018-07-09T12:38:22.177Z,102273.38
2018-07-09T12:40:50.882Z,102270.15
2018-07-09T12:43:20.011Z,102274.36
2018-07-09T12:45:49.625Z,102274.81
2018-07-09T12:48:18.582Z,102279.95
2018-07-09T12:50:47.588Z,102272.31
2018-07-09T12:53:16.499Z,102273.27
2018-07-09T12:55:45.701Z,102275.14
2018-07-09T12:58:14.662Z,102276.25
2018-07-09T13:00:43.741Z,102267.30
2018-07-09T13:03:12.707Z,102265.34
2018-07-09T13:05:41.661Z,102270.84
2018-07-09T13:08:10.477Z,102267.37
2018-07-09T13:10:40.575Z,102266.04
2018-07-09T13:13:09.515Z,102270.42
2018-07-09T13:15:38.511Z,102273.95
2018-07-09T13:18:07.309Z,102261.08
2018-07-09T13:20:36.344Z,102272.71
2018-07-09T13:23:05.362Z,102276.25
2018-07-09T13:25:34.364Z,102280.40
2018-07-09T13:28:03.433Z,102286.80
2018-07-09T13:30:32.598Z,102270.84
2018-07-09T13:33:01.789Z,102271.31
2018-07-09T13:35:30.928Z,102273.42
2018-07-09T13:38:00.000Z,102275.58
2018-07-09T13:40:29.186Z,102259.79
2018-07-09T13:42:58.297Z,102262.57
2018-07-09T13:45:33.678Z,102264.17
2018-07-09T13:48:02.796Z,102273.29
2018-07-09T13:50:31.969Z,102267.50
2018-07-09T13:53:01.129Z,102272.11
2018-07-09T13:55:30.413Z,102268.96
2018-07-09T13:57:59.304Z,102263.57
2018-07-09T14:00:28.091Z,102257.80
2018-07-09T14:02:57.084Z,102252.41
2018-07-09T14:05:25.998Z,102252.14
2018-07-09T14:07:55.067Z,102246.53
2018-07-09T14:10:24.022Z,102248.47
2018-07-09T14:12:53.293Z,102251.21
2018-07-09T14:15:22.212Z,102234.90
2018-07-09T14:17:51.182Z,102239.33
2018-07-09T14:20:32.755Z,102226.04
2018-07-09T14:23:02.403Z,102227.86
2018-07-09T14:25:31.427Z,102223.11
2018-07-09T14:28:00.809Z,102219.07
2018-07-09T14:30:29.845Z,102209.64
2018-07-09T14:32:59.672Z,102218.73
2018-07-09T14:35:28.755Z,102212.45
2018-07-09T14:37:57.738Z,102209.42
2018-07-09T14:40:27.003Z,102205.83
2018-07-09T14:42:56.079Z,102211.47
2018-07-09T14:45:31.316Z,102209.46
2018-07-09T14:48:00.252Z,102210.28
2018-07-09T14:50:29.321Z,102213.84
2018-07-09T14:52:58.339Z,102211.09
2018-07-09T14:55:27.355Z,102207.32
2018-07-09T14:57:56.332Z,102210.63
2018-07-09T15:00:25.326Z,102207.36
2018-07-09T15:02:54.374Z,102211.00
2018-07-09T15:05:23.420Z,102212.69
2018-07-09T15:07:52.438Z,102201.37
2018-07-09T15:10:21.430Z,102195.12
2018-07-09T15:12:50.340Z,102203.77
2018-07-09T15:15:19.436Z,102211.31
2018-07-09T15:17:48.465Z,102198.60
2018-07-09T15:20:17.427Z,102200.19
2018-07-09T15:22:46.140Z,102189.37
2018-07-09T15:25:15.111Z,102189.70
2018-07-09T15:27:44.019Z,102195.10
2018-07-09T15:30:13.047Z,102189.14
2018-07-09T15:32:42.007Z,102190.25
2018-07-09T15:35:10.976Z,102188.30
2018-07-09T15:37:39.677Z,102192.90
2018-07-09T15:40:08.469Z,102186.00
2018-07-09T15:42:37.477Z,102192.46
2018-07-09T15:45:06.741Z,102168.12
2018-07-09T15:47:35.753Z,102165.84
2018-07-09T15:50:04.494Z,102170.22
2018-07-09T15:52:33.474Z,102162.42
2018-07-09T15:55:02.249Z,102165.30
2018-07-09T15:57:31.229Z,102166.91
2018-07-09T16:00:00.215Z,102165.16
2018-07-09T16:02:29.151Z,102152.34
2018-07-09T16:04:58.111Z,102149.88
2018-07-09T16:07:27.198Z,102148.69
2018-07-09T16:09:56.115Z,102144.09
2018-07-09T16:12:25.078Z,102149.52
2018-07-09T16:14:53.998Z,102137.42
2018-07-09T16:17:23.539Z,102132.84
2018-07-09T16:19:52.525Z,102133.55
2018-07-09T16:22:27.981Z,102134.38
2018-07-09T16:24:56.890Z,102124.66
2018-07-09T16:27:25.964Z,102130.70
2018-07-09T16:29:54.956Z,102123.92
2018-07-09T16:32:23.925Z,102127.28
2018-07-09T16:34:52.848Z,102122.02
2018-07-09T16:37:21.836Z,102125.51
2018-07-09T16:39:50.768Z,102129.38
2018-07-09T16:42:19.895Z,102119.83
2018-07-09T16:44:48.922Z,102116.83
2018-07-09T16:47:18.241Z,102115.45
2018-07-09T16:49:47.185Z,102107.36
2018-07-09T16:52:16.139Z,102112.34
2018-07-09T16:54:45.296Z,102112.40
2018-07-09T16:57:14.243Z,102117.26
2018-07-09T16:59:43.045Z,102104.22
2018-07-09T17:02:11.741Z,102097.34
2018-07-09T17:04:40.713Z,102095.44
2018-07-09T17:07:09.718Z,102101.17
2018-07-09T17:09:38.708Z,102111.45
2018-07-09T17:12:07.732Z,102103.11
2018-07-09T17:14:36.721Z,102099.67
2018-07-09T17:17:05.779Z,102105.80
2018-07-09T17:19:34.947Z,102104.61
2018-07-09T17:22:03.939Z,102107.79
2018-07-09T17:24:32.913Z,102105.56
2018-07-09T17:27:02.009Z,102103.65
2018-07-09T17:29:30.872Z,102099.44
2018-07-09T17:31:59.924Z,102102.11
2018-07-09T17:34:28.934Z,102101.11
2018-07-09T17:36:57.888Z,102086.86
2018-07-09T17:39:26.903Z,102081.78
2018-07-09T17:41:56.365Z,102095.31
2018-07-09T17:44:25.465Z,102090.97
2018-07-09T17:46:54.635Z,102094.27
2018-07-09T17:49:23.582Z,102094.83
2018-07-09T17:51:52.581Z,102101.78
2018-07-09T17:54:21.530Z,102096.44
2018-07-09T17:56:50.977Z,102095.44
2018-07-09T17:59:19.940Z,102098.95
2018-07-09T18:01:48.944Z,102097.48
2018-07-09T18:04:17.864Z,102101.48
2018-07-09T18:06:48.005Z,102098.59
2018-07-09T18:09:16.957Z,102102.92
2018-07-09T18:11:45.956Z,102097.78
2018-07-09T18:14:14.893Z,102104.03
2018-07-09T18:16:43.884Z,102097.34
2018-07-09T18:19:12.931Z,102096.77
2018-07-09T18:21:42.120Z,102103.52
2018-07-09T18:24:11.067Z,102096.55
2018-07-09T18:26:40.167Z,102095.83
2018-07-09T18:29:09.181Z,102087.28
2018-07-09T18:31:37.934Z,102084.58
2018-07-09T18:34:07.195Z,102084.25
2018-07-09T18:36:35.914Z,102086.70
2018-07-09T18:39:05.659Z,102077.49
2018-07-09T18:41:34.653Z,102077.56
2018-07-09T18:44:03.715Z,102074.60
2018-07-09T18:46:32.800Z,102073.30
2018-07-09T18:49:01.932Z,102063.00
2018-07-09T18:51:31.002Z,102056.13
2018-07-09T18:53:59.952Z,102059.81
2018-07-09T18:56:29.044Z,102060.02
2018-07-09T18:58:58.120Z,102059.61
2018-07-09T19:01:27.120Z,102052.20
2018-07-09T19:03:56.770Z,102053.30
2018-07-09T19:07:00.375Z,102049.81
2018-07-09T19:09:30.520Z,102054.18
2018-07-09T19:12:03.369Z,102051.69
2018-07-09T19:14:44.293Z,102047.08
2018-07-09T19:18:28.641Z,102047.50
2018-07-09T19:21:40.868Z,102044.38
2018-07-09T19:24:10.330Z,102048.36
2018-07-09T19:26:37.969Z,102049.69
2018-07-09T19:29:04.933Z,102049.28
2018-07-09T19:31:32.041Z,102046.02
2018-07-09T19:33:59.053Z,102052.94
2018-07-09T19:36:26.534Z,102055.88
2018-07-09T19:38:53.484Z,102054.91
2018-07-09T19:41:20.494Z,102046.28
2018-07-09T19:43:47.761Z,102050.00
2018-07-09T19:46:14.840Z,102051.30
2018-07-09T19:48:41.804Z,102049.68
2018-07-09T19:51:08.765Z,102048.31
2018-07-09T19:53:35.868Z,102049.56
2018-07-09T19:56:03.358Z,102041.67
2018-07-09T19:58:30.371Z,102039.52
2018-07-09T20:00:57.376Z,102034.02
2018-07-09T20:03:24.857Z,102025.33
2018-07-09T20:05:51.826Z,102023.72
2018-07-09T20:08:19.585Z,102030.16
2018-07-09T20:10:52.084Z,102017.86
2018-07-09T20:13:24.498Z,102025.19
2018-07-09T20:15:57.523Z,102025.02
2018-07-09T20:18:24.636Z,102022.08
2018-07-09T20:20:51.666Z,102024.83
2018-07-09T20:23:18.634Z,102023.69
2018-07-09T20:25:46.084Z,102018.95
2018-07-09T20:28:13.150Z,102011.08
2018-07-09T20:30:40.180Z,102008.00
2018-07-09T20:33:07.196Z,102014.11
2018-07-09T20:35:34.142Z,102019.16
2018-07-09T20:38:01.143Z,102010.75
2018-07-09T20:40:28.102Z,102015.00
2018-07-09T20:42:55.183Z,102007.35
2018-07-09T20:45:28.291Z,102007.80
2018-07-09T20:47:55.310Z,102006.78
2018-07-09T20:50:22.326Z,102014.05
2018-07-09T20:52:49.730Z,102004.81
2018-07-09T20:55:16.808Z,102005.73
2018-07-09T20:57:43.771Z,102011.34
2018-07-09T21:00:10.776Z,102009.13
2018-07-09T21:02:37.739Z,102004.20
2018-07-09T21:05:04.759Z,101999.59
2018-07-09T21:07:32.230Z,102000.44
2018-07-09T21:09:59.243Z,102000.20
2018-07-09T21:12:26.212Z,102001.41
2018-07-09T21:14:53.268Z,101996.36
2018-07-09T21:17:20.228Z,101999.63
2018-07-09T21:19:47.307Z,101996.03
2018-07-09T21:22:14.298Z,101998.45
2018-07-09T21:24:41.487Z,101995.63
2018-07-09T21:27:08.450Z,102000.38
2018-07-09T21:29:35.407Z,101988.55
2018-07-09T21:32:02.481Z,101992.95
2018-07-09T21:34:29.446Z,101992.87
2018-07-09T21:36:56.464Z,101987.52
2018-07-09T21:39:23.433Z,101994.84
2018-07-09T21:41:50.451Z,101987.84
2018-07-09T21:44:17.484Z,101976.30
2018-07-09T21:46:44.526Z,101975.39
2018-07-09T21:49:11.483Z,101966.30
2018-07-09T21:51:38.946Z,101955.90
2018-07-09T21:54:06.342Z,101946.45
2018-07-09T21:56:33.472Z,101949.11
2018-07-09T21:59:00.441Z,101958.06
2018-07-09T22:01:27.460Z,101955.64
2018-07-09T22:03:54.857Z,101954.25
2018-07-09T22:06:21.869Z,101952.88
2018-07-09T22:08:49.373Z,101951.97
2018-07-09T22:11:16.389Z,101939.48
2018-07-09T22:13:43.367Z,101937.22
2018-07-09T22:16:10.344Z,101934.95
2018-07-09T22:18:37.368Z,101934.52
2018-07-09T22:21:04.414Z,101929.98
2018-07-09T22:23:31.444Z,101930.27
2018-07-09T22:25:58.416Z,101930.41
2018-07-09T22:28:25.384Z,101925.32
2018-07-09T22:30:54.338Z,101921.30
2018-07-09T22:33:23.274Z,101930.21
2018-07-09T22:35:52.056Z,101924.14
2018-07-09T22:38:21.408Z,101919.86
2018-07-09T22:40:50.163Z,101918.58
2018-07-09T22:43:35.929Z,101921.48
2018-07-09T22:46:05.073Z,101925.16
2018-07-09T22:48:33.905Z,101934.31
2018-07-09T22:51:02.728Z,101935.89
2018-07-09T22:53:31.366Z,101940.83
2018-07-09T22:56:12.986Z,101931.13
2018-07-09T22:58:42.532Z,101929.65
2018-07-09T23:01:11.336Z,101922.41
2018-07-09T23:03:40.214Z,101925.08
2018-07-09T23:06:08.977Z,101921.89
2018-07-09T23:08:37.803Z,101920.16
2018-07-09T23:11:33.424Z,101908.63
2018-07-09T23:16:47.175Z,101906.95
2018-07-09T23:19:34.627Z,101885.64
2018-07-09T23:22:17.062Z,101889.96
2018-07-09T23:24:44.024Z,101889.02
2018-07-09T23:27:10.938Z,101882.59
2018-07-09T23:29:37.897Z,101874.07
2018-07-09T23:32:04.874Z,101868.82
2018-07-09T23:34:32.286Z,101864.89
2018-07-09T23:36:59.203Z,101865.27
2018-07-09T23:39:26.205Z,101860.30
2018-07-09T23:41:53.210Z,101870.83
2018-07-09T23:44:20.664Z,101869.39
2018-07-09T23:46:47.663Z,101863.81
2018-07-09T23:49:14.571Z,101864.97
2018-07-09T23:51:41.522Z,101863.40
2018-07-09T23:54:08.442Z,101859.78
2018-07-09T23:57:22.159Z,101859.43
